Middleton, Canada
Current Conditions -  °F | °C
As of 3:00 PM on Thursday 30 Oct 2014 (Local Time) from CYZX Reporting Station
Few Clouds Few Clouds  
Wind Chill: 55°   Ceiling: Unl
Heat Index: 55°   Visibility: 15mi
Dew Point: 41°   Wind: 15mph
Humidity: 58%   Direction: 270°W
Pressure: 29.81"   Gusts: NA
Location:  44.94°N, 65.07°W
Report Text: CYZX 301800Z 27013KT 15SM FEW030 FEW210 13/05 A2981 RMK SC1CI1 WNDY HILL 30010G15KT SLP097
Loading
Personal Weather Stations






























Interactive Weather Map
Tropical Storm Tracking
New forecast layout! Learn more

10-Day Weather Forecast

Advertisements
Track Severe Weather on mobile